Change the Weather History Date:

Saturday, June 8, 2013

  Actual Average Record
Temperature  
Mean Temperature 56 °F -  
Max Temperature 66 °F 66 °F 84 °F (2004)
Min Temperature 46 °F 51 °F 46 °F (2001)
Degree Days  
Heating Degree Days 9    
Growing Degree Days 6 (Base 50)    
Moisture  
Dew Point 45 °F    
Average Humidity 68    
Maximum Humidity 95    
Minimum Humidity 38    
Precipitation  
Precipitation 0.00 in - - ()
Sea Level Pressure  
Sea Level Pressure 30.02 in    
Wind  
Wind Speed 2 mph (West)    
Max Wind Speed 8 mph    
Max Gust Speed -    
Visibility 10 miles    
Events      
Averages and records for this station are not official NWS values.
T = Trace of Precipitation, MM = Missing Value Source: NWS Daily Summary

Daily Weather History Graph

Daily Weather History Graph

Search for Another Location

Airport or City:

Trip Planner

Search our weather history database for the weather conditions in past years. The results will help you decide how hot, cold, wet, or windy it might be!

Date:

Astronomy

Jun. 08, 2013 Rise Set
Actual Time 5:53 AM EDT 9:27 PM EDT
Civil Twilight 5:16 AM EDT 10:04 PM EDT
Nautical Twilight 4:26 AM EDT 10:54 PM EDT
Astronomical Twilight 3:21 AM EDT 11:59 PM EDT
Moon 6:03 AM EDT (6/8) 9:26 PM EDT (6/8)
Length of Visible Light 16h 48m
Length of Day
15h 33m
New Moon, 0% of the Moon is Illuminated
Jun 8
New Moon
Jun 16
First Quarter
Jun 23
Full
Jun 30
Last Quarter
Jul 8
New

Hourly Weather History & Observations

Time (EDT) Temp. Dew Point Humidity Pressure Visibility Wind Dir Wind Speed Gust Speed Precip Events Conditions
12:15 AM 48.9 °F 44.6 °F 85% 29.97 in 10.0 mi Calm Calm - N/A   Clear
12:34 AM 49.1 °F 43.7 °F 82% 29.97 in 10.0 mi Calm Calm - N/A   Clear
12:54 AM 48.2 °F 43.7 °F 84% 29.98 in 10.0 mi Calm Calm - N/A   Clear
1:15 AM 48.2 °F 44.1 °F 86% 29.98 in 10.0 mi Calm Calm - N/A   Clear
1:34 AM 46.8 °F 43.2 °F 87% 29.98 in 10.0 mi Calm Calm - N/A   Clear
1:54 AM 47.3 °F 42.6 °F 84% 29.97 in 10.0 mi Calm Calm - N/A   Clear
2:14 AM 46.8 °F 43.2 °F 87% 29.97 in 10.0 mi SSE 3.5 mph - N/A   Clear
2:34 AM 48.6 °F 43.9 °F 84% 29.97 in 10.0 mi Calm Calm - N/A   Clear
2:55 AM 49.1 °F 43.3 °F 81% 29.96 in 10.0 mi ESE 3.5 mph - N/A   Clear
3:14 AM 48.7 °F 43.3 °F 82% 29.96 in 10.0 mi Calm Calm - N/A   Clear
3:34 AM 49.1 °F 43.2 °F 80% 29.96 in 10.0 mi Calm Calm - N/A   Clear
3:54 AM 49.3 °F 44.2 °F 83% 29.96 in 10.0 mi Calm Calm - N/A   Clear
4:14 AM 48.2 °F 43.9 °F 85% 29.95 in 10.0 mi ESE 3.5 mph - N/A   Clear
4:35 AM 47.7 °F 44.1 °F 87% 29.95 in 10.0 mi ESE 3.5 mph - N/A   Clear
4:54 AM 47.7 °F 43.7 °F 86% 29.95 in 10.0 mi Calm Calm - N/A   Clear
5:15 AM 46.8 °F 44.6 °F 92% 29.96 in 10.0 mi Calm Calm - N/A   Clear
5:34 AM 47.3 °F 44.8 °F 91% 29.96 in 10.0 mi Calm Calm - N/A   Clear
5:54 AM 46.0 °F 44.6 °F 95% 29.97 in 10.0 mi Calm Calm - N/A   Clear
6:15 AM 46.6 °F 45.1 °F 95% 29.97 in 10.0 mi Calm Calm - N/A   Clear
6:34 AM 47.5 °F 45.9 °F 94% 29.98 in 10.0 mi Calm Calm - N/A   Clear
6:54 AM 48.2 °F 46.4 °F 93% 29.98 in 10.0 mi Calm Calm - N/A   Clear
7:15 AM 49.5 °F 48.2 °F 95% 29.99 in 10.0 mi Calm Calm - N/A   Clear
7:34 AM 50.7 °F 48.4 °F 92% 29.99 in 10.0 mi Calm Calm - N/A   Clear
7:54 AM 52.3 °F 47.3 °F 83% 29.99 in 10.0 mi Calm Calm - N/A   Clear
8:15 AM 53.2 °F 47.5 °F 81% 30.00 in 10.0 mi Calm Calm - N/A   Clear
8:34 AM 54.7 °F 48.2 °F 79% 30.00 in 10.0 mi Calm Calm - N/A   Clear
8:54 AM 54.7 °F 49.3 °F 82% 30.01 in 10.0 mi Calm Calm - N/A   Clear
9:15 AM 56.5 °F 50.2 °F 79% 30.01 in 10.0 mi Calm Calm - N/A   Clear
9:34 AM 58.1 °F 51.1 °F 77% 30.01 in 10.0 mi Calm Calm - N/A   Clear
9:54 AM 60.8 °F 52.5 °F 74% 30.01 in 10.0 mi West 3.5 mph - N/A   Clear
10:15 AM 62.8 °F 53.8 °F 72% 30.01 in 10.0 mi West 3.5 mph - N/A   Clear
10:34 AM 61.0 °F 53.1 °F 75% 30.01 in 10.0 mi WNW 4.6 mph - N/A   Clear
10:55 AM 61.0 °F 51.3 °F 70% 30.02 in 10.0 mi WSW 5.8 mph - N/A   Mostly Cloudy
11:14 AM 61.0 °F 50.0 °F 67% 30.02 in 10.0 mi WSW 5.8 mph - N/A   Overcast
11:34 AM 60.6 °F 48.4 °F 64% 30.02 in 10.0 mi SW 4.6 mph - N/A   Overcast
11:55 AM 61.3 °F 48.6 °F 63% 30.03 in 10.0 mi WSW 4.6 mph - N/A   Overcast
12:14 PM 61.2 °F 44.6 °F 54% 30.03 in 10.0 mi WSW 8.1 mph - N/A   Overcast
12:34 PM 61.0 °F 42.8 °F 51% 30.04 in 10.0 mi WSW 6.9 mph - N/A   Overcast
12:55 PM 60.4 °F 42.3 °F 51% 30.04 in 10.0 mi WSW 6.9 mph - N/A   Overcast
1:14 PM 61.0 °F 42.4 °F 51% 30.04 in 10.0 mi WSW 6.9 mph - N/A   Overcast
1:34 PM 62.1 °F 42.6 °F 49% 30.04 in 10.0 mi WSW 4.6 mph - N/A   Mostly Cloudy
1:55 PM 62.1 °F 42.1 °F 48% 30.04 in 10.0 mi West 4.6 mph - N/A   Mostly Cloudy
2:14 PM 62.6 °F 42.3 °F 47% 30.04 in 10.0 mi WNW 4.6 mph - N/A   Overcast
2:34 PM 62.6 °F 41.0 °F 45% 30.04 in 10.0 mi West 5.8 mph - N/A   Overcast
2:55 PM 63.9 °F 42.8 °F 46% 30.04 in 10.0 mi West 8.1 mph - N/A   Scattered Clouds
3:14 PM 62.8 °F 41.7 °F 46% 30.04 in 10.0 mi WNW 6.9 mph - N/A   Clear
3:34 PM 62.2 °F 43.7 °F 51% 30.04 in 10.0 mi WNW 8.1 mph - N/A   Clear
3:55 PM 61.7 °F 44.2 °F 53% 30.04 in 10.0 mi West 5.8 mph - N/A   Clear
4:14 PM 61.5 °F 43.9 °F 52% 30.04 in 10.0 mi West 3.5 mph - N/A   Clear
4:35 PM 62.6 °F 43.0 °F 49% 30.04 in 10.0 mi Calm Calm - N/A   Clear
4:54 PM 64.2 °F 42.6 °F 45% 30.03 in 10.0 mi West 3.5 mph - N/A   Clear
5:14 PM 65.8 °F 43.0 °F 43% 30.04 in 10.0 mi WNW 4.6 mph - N/A   Clear
5:35 PM 63.1 °F 41.4 °F 45% 30.04 in 10.0 mi WNW 3.5 mph - N/A   Clear
5:54 PM 64.2 °F 39.9 °F 41% 30.05 in 10.0 mi NW 4.6 mph - N/A   Clear
6:14 PM 65.3 °F 39.2 °F 38% 30.05 in 10.0 mi WNW 3.5 mph - N/A   Clear
6:35 PM 64.8 °F 39.4 °F 39% 30.05 in 10.0 mi WNW 4.6 mph - N/A   Mostly Cloudy
6:54 PM 66.2 °F 41.4 °F 40% 30.05 in 10.0 mi NW 4.6 mph - N/A   Overcast
7:14 PM 65.5 °F 40.1 °F 39% 30.06 in 10.0 mi Calm Calm - N/A   Overcast
7:35 PM 65.3 °F 40.8 °F 41% 30.06 in 10.0 mi Calm Calm - N/A   Scattered Clouds
7:54 PM 65.7 °F 42.1 °F 42% 30.06 in 10.0 mi West 3.5 mph - N/A   Scattered Clouds
8:14 PM 65.5 °F 43.3 °F 45% 30.06 in 10.0 mi West 3.5 mph - N/A   Clear
8:35 PM 63.9 °F 43.7 °F 48% 30.06 in 10.0 mi Calm Calm - N/A   Clear
8:54 PM 62.8 °F 42.8 °F 48% 30.06 in 10.0 mi Calm Calm - N/A   Clear
9:14 PM 60.6 °F 44.8 °F 56% 30.07 in 7.0 mi Calm Calm - N/A   Clear
9:35 PM 57.9 °F 45.0 °F 62% 30.07 in 10.0 mi Calm Calm - N/A   Clear
9:54 PM 53.6 °F 46.4 °F 77% 30.08 in 10.0 mi Calm Calm - N/A   Clear
10:14 PM 53.8 °F 46.6 °F 77% 30.09 in 10.0 mi Calm Calm - N/A   Clear
10:34 PM 52.9 °F 46.6 °F 79% 30.10 in 10.0 mi Calm Calm - N/A   Clear
10:54 PM 52.9 °F 46.9 °F 80% 30.10 in 10.0 mi Calm Calm - N/A   Clear
11:15 PM 50.5 °F 46.4 °F 86% 30.10 in 10.0 mi Calm Calm - N/A   Clear
11:34 PM 50.9 °F 47.3 °F 87% 30.10 in 10.0 mi SSE 3.5 mph - N/A   Clear
11:54 PM 50.2 °F 47.3 °F 90% 30.10 in 10.0 mi Calm Calm - N/A   Clear